sensor_id;sensor_type;location;lat;lon;timestamp;P1;durP1;ratioP1;P2;durP2;ratioP2
82479;SDS011;72105;46.112;12.902;2024-01-11T00:00:57;6.95;;;4.13;;
82479;SDS011;72105;46.112;12.902;2024-01-11T00:03:24;9.88;;;4.47;;
82479;SDS011;72105;46.112;12.902;2024-01-11T00:05:50;6.75;;;3.65;;
82479;SDS011;72105;46.112;12.902;2024-01-11T00:08:16;7.32;;;4.20;;
82479;SDS011;72105;46.112;12.902;2024-01-11T00:10:43;8.93;;;4.40;;
82479;SDS011;72105;46.112;12.902;2024-01-11T00:13:09;8.65;;;4.55;;
82479;SDS011;72105;46.112;12.902;2024-01-11T00:15:35;8.13;;;4.22;;
82479;SDS011;72105;46.112;12.902;2024-01-11T00:18:01;7.80;;;4.45;;
82479;SDS011;72105;46.112;12.902;2024-01-11T00:20:27;8.40;;;4.65;;
82479;SDS011;72105;46.112;12.902;2024-01-11T00:22:53;8.85;;;5.38;;
82479;SDS011;72105;46.112;12.902;2024-01-11T00:25:19;10.52;;;4.97;;
82479;SDS011;72105;46.112;12.902;2024-01-11T00:27:45;6.78;;;3.85;;
82479;SDS011;72105;46.112;12.902;2024-01-11T00:30:11;8.48;;;4.90;;
82479;SDS011;72105;46.112;12.902;2024-01-11T00:32:38;7.22;;;4.53;;
82479;SDS011;72105;46.112;12.902;2024-01-11T00:35:04;5.80;;;4.35;;
82479;SDS011;72105;46.112;12.902;2024-01-11T00:37:30;7.18;;;4.85;;
82479;SDS011;72105;46.112;12.902;2024-01-11T00:39:56;9.80;;;4.10;;
82479;SDS011;72105;46.112;12.902;2024-01-11T00:42:22;7.75;;;4.32;;
82479;SDS011;72105;46.112;12.902;2024-01-11T00:44:48;10.35;;;4.32;;
82479;SDS011;72105;46.112;12.902;2024-01-11T00:47:14;7.78;;;4.82;;
82479;SDS011;72105;46.112;12.902;2024-01-11T00:49:41;8.95;;;4.55;;
82479;SDS011;72105;46.112;12.902;2024-01-11T00:52:08;4.65;;;3.55;;
82479;SDS011;72105;46.112;12.902;2024-01-11T00:54:35;7.45;;;3.58;;
82479;SDS011;72105;46.112;12.902;2024-01-11T00:57:01;6.03;;;3.53;;
82479;SDS011;72105;46.112;12.902;2024-01-11T00:59:27;7.57;;;4.60;;
82479;SDS011;72105;46.112;12.902;2024-01-11T01:01:53;7.00;;;3.75;;
82479;SDS011;72105;46.112;12.902;2024-01-11T01:04:19;6.63;;;4.00;;
82479;SDS011;72105;46.112;12.902;2024-01-11T01:06:45;7.55;;;3.72;;
82479;SDS011;72105;46.112;12.902;2024-01-11T01:09:11;6.38;;;3.75;;
82479;SDS011;72105;46.112;12.902;2024-01-11T01:11:38;8.30;;;4.28;;
82479;SDS011;72105;46.112;12.902;2024-01-11T01:14:04;8.73;;;4.22;;
82479;SDS011;72105;46.112;12.902;2024-01-11T01:16:31;6.10;;;3.78;;
82479;SDS011;72105;46.112;12.902;2024-01-11T01:18:57;5.32;;;3.85;;
82479;SDS011;72105;46.112;12.902;2024-01-11T01:21:23;6.50;;;4.20;;
82479;SDS011;72105;46.112;12.902;2024-01-11T01:23:49;6.35;;;4.10;;
82479;SDS011;72105;46.112;12.902;2024-01-11T01:26:15;6.47;;;3.53;;
82479;SDS011;72105;46.112;12.902;2024-01-11T01:28:41;6.88;;;3.42;;
82479;SDS011;72105;46.112;12.902;2024-01-11T01:31:07;7.68;;;3.95;;
82479;SDS011;72105;46.112;12.902;2024-01-11T01:33:34;6.43;;;3.70;;
82479;SDS011;72105;46.112;12.902;2024-01-11T01:36:00;4.50;;;3.38;;
82479;SDS011;72105;46.112;12.902;2024-01-11T01:38:31;6.72;;;3.08;;
82479;SDS011;72105;46.112;12.902;2024-01-11T01:40:57;5.15;;;3.08;;
82479;SDS011;72105;46.112;12.902;2024-01-11T01:43:23;5.35;;;3.65;;
82479;SDS011;72105;46.112;12.902;2024-01-11T01:45:49;5.32;;;3.45;;
82479;SDS011;72105;46.112;12.902;2024-01-11T01:48:15;10.13;;;4.18;;
82479;SDS011;72105;46.112;12.902;2024-01-11T01:50:41;7.90;;;4.40;;
82479;SDS011;72105;46.112;12.902;2024-01-11T01:53:10;7.20;;;3.78;;
82479;SDS011;72105;46.112;12.902;2024-01-11T01:55:36;6.43;;;3.85;;
82479;SDS011;72105;46.112;12.902;2024-01-11T01:58:02;5.30;;;3.40;;
82479;SDS011;72105;46.112;12.902;2024-01-11T02:00:29;6.88;;;4.15;;
82479;SDS011;72105;46.112;12.902;2024-01-11T02:02:55;4.93;;;3.47;;
82479;SDS011;72105;46.112;12.902;2024-01-11T02:05:22;6.57;;;3.10;;
82479;SDS011;72105;46.112;12.902;2024-01-11T02:07:49;8.98;;;3.50;;
82479;SDS011;72105;46.112;12.902;2024-01-11T02:10:15;8.15;;;3.80;;
82479;SDS011;72105;46.112;12.902;2024-01-11T02:12:42;6.03;;;3.45;;
82479;SDS011;72105;46.112;12.902;2024-01-11T02:15:08;6.07;;;3.25;;
82479;SDS011;72105;46.112;12.902;2024-01-11T02:17:35;6.35;;;3.20;;
82479;SDS011;72105;46.112;12.902;2024-01-11T02:20:01;5.72;;;3.78;;
82479;SDS011;72105;46.112;12.902;2024-01-11T02:22:30;6.95;;;3.60;;
82479;SDS011;72105;46.112;12.902;2024-01-11T02:24:57;5.70;;;3.53;;
82479;SDS011;72105;46.112;12.902;2024-01-11T02:27:23;4.57;;;2.97;;
82479;SDS011;72105;46.112;12.902;2024-01-11T02:29:50;6.13;;;3.75;;
82479;SDS011;72105;46.112;12.902;2024-01-11T02:32:16;4.28;;;2.95;;
82479;SDS011;72105;46.112;12.902;2024-01-11T02:34:42;4.75;;;2.97;;
82479;SDS011;72105;46.112;12.902;2024-01-11T02:37:08;12.82;;;3.95;;
82479;SDS011;72105;46.112;12.902;2024-01-11T02:39:34;6.03;;;3.13;;
82479;SDS011;72105;46.112;12.902;2024-01-11T02:42:01;6.57;;;3.13;;
82479;SDS011;72105;46.112;12.902;2024-01-11T02:44:27;5.13;;;3.33;;
82479;SDS011;72105;46.112;12.902;2024-01-11T02:46:53;4.65;;;3.05;;
82479;SDS011;72105;46.112;12.902;2024-01-11T02:49:19;5.60;;;3.03;;
82479;SDS011;72105;46.112;12.902;2024-01-11T02:51:45;3.30;;;2.72;;
82479;SDS011;72105;46.112;12.902;2024-01-11T02:54:11;7.78;;;3.30;;
82479;SDS011;72105;46.112;12.902;2024-01-11T02:56:37;5.60;;;3.30;;
82479;SDS011;72105;46.112;12.902;2024-01-11T02:59:03;5.15;;;3.20;;
82479;SDS011;72105;46.112;12.902;2024-01-11T03:01:29;7.25;;;3.38;;
82479;SDS011;72105;46.112;12.902;2024-01-11T03:03:56;4.85;;;3.17;;
82479;SDS011;72105;46.112;12.902;2024-01-11T03:06:22;5.68;;;3.10;;
82479;SDS011;72105;46.112;12.902;2024-01-11T03:08:48;6.38;;;3.33;;
82479;SDS011;72105;46.112;12.902;2024-01-11T03:11:14;6.00;;;2.80;;
82479;SDS011;72105;46.112;12.902;2024-01-11T03:13:41;5.45;;;2.78;;
82479;SDS011;72105;46.112;12.902;2024-01-11T03:16:07;5.82;;;3.20;;
82479;SDS011;72105;46.112;12.902;2024-01-11T03:18:33;6.43;;;3.17;;
82479;SDS011;72105;46.112;12.902;2024-01-11T03:20:59;4.78;;;3.17;;
82479;SDS011;72105;46.112;12.902;2024-01-11T03:23:25;6.60;;;3.60;;
82479;SDS011;72105;46.112;12.902;2024-01-11T03:25:51;6.90;;;3.80;;
82479;SDS011;72105;46.112;12.902;2024-01-11T03:28:18;6.30;;;3.13;;
82479;SDS011;72105;46.112;12.902;2024-01-11T03:30:44;5.68;;;3.63;;
82479;SDS011;72105;46.112;12.902;2024-01-11T03:33:10;5.30;;;2.92;;
82479;SDS011;72105;46.112;12.902;2024-01-11T03:35:36;6.47;;;3.38;;
82479;SDS011;72105;46.112;12.902;2024-01-11T03:38:06;3.38;;;2.75;;
82479;SDS011;72105;46.112;12.902;2024-01-11T03:40:32;5.65;;;3.08;;
82479;SDS011;72105;46.112;12.902;2024-01-11T03:42:58;5.30;;;3.33;;
82479;SDS011;72105;46.112;12.902;2024-01-11T03:45:25;4.35;;;2.67;;
82479;SDS011;72105;46.112;12.902;2024-01-11T03:47:51;3.90;;;2.00;;
82479;SDS011;72105;46.112;12.902;2024-01-11T03:50:17;5.55;;;2.88;;
82479;SDS011;72105;46.112;12.902;2024-01-11T03:52:44;4.30;;;2.40;;
82479;SDS011;72105;46.112;12.902;2024-01-11T03:55:10;3.90;;;2.90;;
82479;SDS011;72105;46.112;12.902;2024-01-11T03:57:36;4.68;;;2.83;;
82479;SDS011;72105;46.112;12.902;2024-01-11T04:00:03;5.75;;;2.40;;
82479;SDS011;72105;46.112;12.902;2024-01-11T04:02:31;2.97;;;2.20;;
82479;SDS011;72105;46.112;12.902;2024-01-11T04:04:57;3.53;;;2.50;;
82479;SDS011;72105;46.112;12.902;2024-01-11T04:07:23;3.97;;;2.50;;
82479;SDS011;72105;46.112;12.902;2024-01-11T04:09:49;4.30;;;2.80;;
82479;SDS011;72105;46.112;12.902;2024-01-11T04:12:15;4.88;;;2.95;;
82479;SDS011;72105;46.112;12.902;2024-01-11T04:14:41;3.63;;;2.38;;
82479;SDS011;72105;46.112;12.902;2024-01-11T04:17:07;5.78;;;3.22;;
82479;SDS011;72105;46.112;12.902;2024-01-11T04:19:33;4.75;;;2.38;;
82479;SDS011;72105;46.112;12.902;2024-01-11T04:21:59;4.35;;;2.42;;
82479;SDS011;72105;46.112;12.902;2024-01-11T04:24:25;4.57;;;2.13;;
82479;SDS011;72105;46.112;12.902;2024-01-11T04:26:52;2.35;;;1.55;;
82479;SDS011;72105;46.112;12.902;2024-01-11T04:29:18;4.78;;;1.75;;
82479;SDS011;72105;46.112;12.902;2024-01-11T04:31:44;5.18;;;2.30;;
82479;SDS011;72105;46.112;12.902;2024-01-11T04:34:10;3.80;;;2.60;;
82479;SDS011;72105;46.112;12.902;2024-01-11T04:36:39;4.95;;;2.20;;
82479;SDS011;72105;46.112;12.902;2024-01-11T04:39:05;5.25;;;2.58;;
82479;SDS011;72105;46.112;12.902;2024-01-11T04:41:33;5.25;;;2.53;;
82479;SDS011;72105;46.112;12.902;2024-01-11T04:43:59;2.85;;;2.33;;
82479;SDS011;72105;46.112;12.902;2024-01-11T04:46:25;3.65;;;1.98;;
82479;SDS011;72105;46.112;12.902;2024-01-11T04:48:51;3.53;;;2.53;;
82479;SDS011;72105;46.112;12.902;2024-01-11T04:51:19;5.28;;;2.85;;
82479;SDS011;72105;46.112;12.902;2024-01-11T04:53:45;5.45;;;2.83;;
82479;SDS011;72105;46.112;12.902;2024-01-11T04:56:12;4.85;;;3.00;;
82479;SDS011;72105;46.112;12.902;2024-01-11T04:58:39;5.30;;;2.47;;
82479;SDS011;72105;46.112;12.902;2024-01-11T05:01:06;5.97;;;2.88;;
82479;SDS011;72105;46.112;12.902;2024-01-11T05:03:32;4.03;;;2.20;;
82479;SDS011;72105;46.112;12.902;2024-01-11T05:05:58;3.58;;;2.72;;
82479;SDS011;72105;46.112;12.902;2024-01-11T05:08:27;3.03;;;2.10;;
82479;SDS011;72105;46.112;12.902;2024-01-11T05:10:53;5.78;;;2.97;;
82479;SDS011;72105;46.112;12.902;2024-01-11T05:13:19;7.55;;;3.15;;
82479;SDS011;72105;46.112;12.902;2024-01-11T05:15:45;6.20;;;2.92;;
82479;SDS011;72105;46.112;12.902;2024-01-11T05:18:12;4.45;;;2.38;;
82479;SDS011;72105;46.112;12.902;2024-01-11T05:20:38;4.32;;;2.33;;
82479;SDS011;72105;46.112;12.902;2024-01-11T05:23:04;4.60;;;2.40;;
82479;SDS011;72105;46.112;12.902;2024-01-11T05:25:31;4.63;;;2.75;;
82479;SDS011;72105;46.112;12.902;2024-01-11T05:28:00;3.85;;;2.45;;
82479;SDS011;72105;46.112;12.902;2024-01-11T05:30:27;4.63;;;2.10;;
82479;SDS011;72105;46.112;12.902;2024-01-11T05:32:53;4.13;;;1.95;;
82479;SDS011;72105;46.112;12.902;2024-01-11T05:35:20;3.88;;;2.47;;
82479;SDS011;72105;46.112;12.902;2024-01-11T05:37:46;5.10;;;2.33;;
82479;SDS011;72105;46.112;12.902;2024-01-11T05:40:12;7.00;;;2.70;;
82479;SDS011;72105;46.112;12.902;2024-01-11T05:42:38;3.97;;;2.58;;
82479;SDS011;72105;46.112;12.902;2024-01-11T05:45:05;5.38;;;2.95;;
82479;SDS011;72105;46.112;12.902;2024-01-11T05:47:31;4.50;;;2.80;;
82479;SDS011;72105;46.112;12.902;2024-01-11T05:49:57;4.40;;;2.40;;
82479;SDS011;72105;46.112;12.902;2024-01-11T05:52:23;4.20;;;2.75;;
82479;SDS011;72105;46.112;12.902;2024-01-11T05:54:49;3.45;;;2.53;;
82479;SDS011;72105;46.112;12.902;2024-01-11T05:57:16;8.00;;;3.80;;
82479;SDS011;72105;46.112;12.902;2024-01-11T05:59:45;4.45;;;2.53;;
82479;SDS011;72105;46.112;12.902;2024-01-11T06:02:11;5.63;;;2.55;;
82479;SDS011;72105;46.112;12.902;2024-01-11T06:04:38;8.57;;;3.53;;
82479;SDS011;72105;46.112;12.902;2024-01-11T06:07:05;6.57;;;3.78;;
82479;SDS011;72105;46.112;12.902;2024-01-11T06:09:31;6.55;;;3.30;;
82479;SDS011;72105;46.112;12.902;2024-01-11T06:11:57;9.63;;;3.45;;
82479;SDS011;72105;46.112;12.902;2024-01-11T06:14:24;5.65;;;3.17;;
82479;SDS011;72105;46.112;12.902;2024-01-11T06:16:50;5.97;;;3.60;;
82479;SDS011;72105;46.112;12.902;2024-01-11T06:19:16;9.00;;;3.63;;
82479;SDS011;72105;46.112;12.902;2024-01-11T06:21:42;6.93;;;3.92;;
82479;SDS011;72105;46.112;12.902;2024-01-11T06:24:08;6.05;;;3.42;;
82479;SDS011;72105;46.112;12.902;2024-01-11T06:26:35;4.82;;;3.30;;
82479;SDS011;72105;46.112;12.902;2024-01-11T06:29:01;5.15;;;3.13;;
82479;SDS011;72105;46.112;12.902;2024-01-11T06:31:27;9.50;;;3.85;;
82479;SDS011;72105;46.112;12.902;2024-01-11T06:33:53;3.55;;;2.08;;
82479;SDS011;72105;46.112;12.902;2024-01-11T06:36:19;4.65;;;2.75;;
82479;SDS011;72105;46.112;12.902;2024-01-11T06:38:46;7.55;;;3.78;;
82479;SDS011;72105;46.112;12.902;2024-01-11T06:41:12;9.43;;;3.88;;
82479;SDS011;72105;46.112;12.902;2024-01-11T06:43:38;6.18;;;3.22;;
82479;SDS011;72105;46.112;12.902;2024-01-11T06:46:04;6.82;;;3.20;;
82479;SDS011;72105;46.112;12.902;2024-01-11T06:48:31;7.03;;;4.10;;
82479;SDS011;72105;46.112;12.902;2024-01-11T06:50:57;9.68;;;3.53;;
82479;SDS011;72105;46.112;12.902;2024-01-11T06:53:23;5.50;;;4.50;;
82479;SDS011;72105;46.112;12.902;2024-01-11T06:55:49;6.50;;;3.60;;
82479;SDS011;72105;46.112;12.902;2024-01-11T06:58:17;7.80;;;3.95;;
82479;SDS011;72105;46.112;12.902;2024-01-11T07:00:43;9.77;;;4.35;;
82479;SDS011;72105;46.112;12.902;2024-01-11T07:03:09;6.45;;;3.97;;
82479;SDS011;72105;46.112;12.902;2024-01-11T07:05:36;6.30;;;4.32;;
82479;SDS011;72105;46.112;12.902;2024-01-11T07:08:02;5.82;;;3.45;;
82479;SDS011;72105;46.112;12.902;2024-01-11T07:10:29;5.90;;;3.30;;
82479;SDS011;72105;46.112;12.902;2024-01-11T07:12:55;6.55;;;4.07;;
82479;SDS011;72105;46.112;12.902;2024-01-11T07:15:21;10.50;;;4.82;;
82479;SDS011;72105;46.112;12.902;2024-01-11T07:17:48;5.75;;;3.42;;
82479;SDS011;72105;46.112;12.902;2024-01-11T07:20:14;6.80;;;4.15;;
82479;SDS011;72105;46.112;12.902;2024-01-11T07:22:42;6.47;;;3.45;;
82479;SDS011;72105;46.112;12.902;2024-01-11T07:25:08;5.75;;;3.72;;
82479;SDS011;72105;46.112;12.902;2024-01-11T07:27:34;8.45;;;4.32;;
82479;SDS011;72105;46.112;12.902;2024-01-11T07:30:01;7.22;;;3.40;;
82479;SDS011;72105;46.112;12.902;2024-01-11T07:32:28;6.13;;;3.53;;
82479;SDS011;72105;46.112;12.902;2024-01-11T07:34:54;8.10;;;4.50;;
82479;SDS011;72105;46.112;12.902;2024-01-11T07:37:20;7.45;;;4.82;;
82479;SDS011;72105;46.112;12.902;2024-01-11T07:39:46;7.18;;;5.07;;
82479;SDS011;72105;46.112;12.902;2024-01-11T07:42:13;7.95;;;4.75;;
82479;SDS011;72105;46.112;12.902;2024-01-11T07:44:41;5.88;;;3.30;;
82479;SDS011;72105;46.112;12.902;2024-01-11T07:47:07;4.05;;;3.38;;
82479;SDS011;72105;46.112;12.902;2024-01-11T07:49:33;3.63;;;2.75;;
82479;SDS011;72105;46.112;12.902;2024-01-11T07:51:59;3.97;;;2.50;;
82479;SDS011;72105;46.112;12.902;2024-01-11T07:54:25;6.43;;;2.63;;
82479;SDS011;72105;46.112;12.902;2024-01-11T07:56:52;6.00;;;3.17;;
82479;SDS011;72105;46.112;12.902;2024-01-11T07:59:18;3.63;;;2.80;;
82479;SDS011;72105;46.112;12.902;2024-01-11T08:01:44;5.05;;;2.55;;
82479;SDS011;72105;46.112;12.902;2024-01-11T08:04:10;4.25;;;3.10;;
82479;SDS011;72105;46.112;12.902;2024-01-11T08:06:36;3.53;;;2.85;;
82479;SDS011;72105;46.112;12.902;2024-01-11T08:09:02;5.68;;;3.20;;
82479;SDS011;72105;46.112;12.902;2024-01-11T08:11:29;5.10;;;2.83;;
82479;SDS011;72105;46.112;12.902;2024-01-11T08:13:56;10.70;;;5.70;;
82479;SDS011;72105;46.112;12.902;2024-01-11T08:16:22;6.50;;;3.95;;
82479;SDS011;72105;46.112;12.902;2024-01-11T08:18:49;4.95;;;3.28;;
82479;SDS011;72105;46.112;12.902;2024-01-11T08:21:15;5.93;;;3.45;;
82479;SDS011;72105;46.112;12.902;2024-01-11T08:23:41;5.95;;;3.08;;
82479;SDS011;72105;46.112;12.902;2024-01-11T08:26:14;6.53;;;4.10;;
82479;SDS011;72105;46.112;12.902;2024-01-11T08:28:40;4.18;;;2.65;;
82479;SDS011;72105;46.112;12.902;2024-01-11T08:31:07;4.47;;;2.95;;
82479;SDS011;72105;46.112;12.902;2024-01-11T08:33:33;4.40;;;3.08;;
82479;SDS011;72105;46.112;12.902;2024-01-11T08:36:02;4.68;;;3.25;;
82479;SDS011;72105;46.112;12.902;2024-01-11T08:38:28;7.30;;;3.58;;
82479;SDS011;72105;46.112;12.902;2024-01-11T08:40:55;6.65;;;3.35;;
82479;SDS011;72105;46.112;12.902;2024-01-11T08:43:21;7.07;;;3.55;;
82479;SDS011;72105;46.112;12.902;2024-01-11T08:45:47;8.73;;;4.45;;
82479;SDS011;72105;46.112;12.902;2024-01-11T08:48:13;7.93;;;3.95;;
82479;SDS011;72105;46.112;12.902;2024-01-11T08:50:40;6.90;;;3.88;;
82479;SDS011;72105;46.112;12.902;2024-01-11T08:53:06;6.90;;;3.50;;
82479;SDS011;72105;46.112;12.902;2024-01-11T08:55:33;6.68;;;3.90;;
82479;SDS011;72105;46.112;12.902;2024-01-11T08:57:59;5.85;;;3.33;;
82479;SDS011;72105;46.112;12.902;2024-01-11T09:00:26;5.85;;;3.35;;
82479;SDS011;72105;46.112;12.902;2024-01-11T09:02:52;5.63;;;3.40;;
82479;SDS011;72105;46.112;12.902;2024-01-11T09:05:18;5.30;;;3.13;;
82479;SDS011;72105;46.112;12.902;2024-01-11T09:07:47;8.00;;;3.30;;
82479;SDS011;72105;46.112;12.902;2024-01-11T09:10:13;6.30;;;3.28;;
82479;SDS011;72105;46.112;12.902;2024-01-11T09:12:39;4.90;;;3.33;;
82479;SDS011;72105;46.112;12.902;2024-01-11T09:15:06;4.88;;;3.33;;
82479;SDS011;72105;46.112;12.902;2024-01-11T09:17:32;5.80;;;3.58;;
82479;SDS011;72105;46.112;12.902;2024-01-11T09:19:58;6.38;;;3.92;;
82479;SDS011;72105;46.112;12.902;2024-01-11T09:22:24;4.90;;;3.08;;
82479;SDS011;72105;46.112;12.902;2024-01-11T09:24:51;6.72;;;4.22;;
82479;SDS011;72105;46.112;12.902;2024-01-11T09:27:17;7.78;;;4.13;;
82479;SDS011;72105;46.112;12.902;2024-01-11T09:29:43;10.60;;;6.03;;
82479;SDS011;72105;46.112;12.902;2024-01-11T09:32:10;10.68;;;6.38;;
82479;SDS011;72105;46.112;12.902;2024-01-11T09:34:36;6.30;;;3.75;;
82479;SDS011;72105;46.112;12.902;2024-01-11T09:37:02;6.97;;;4.10;;
82479;SDS011;72105;46.112;12.902;2024-01-11T09:39:31;6.97;;;3.90;;
82479;SDS011;72105;46.112;12.902;2024-01-11T09:41:58;4.90;;;2.88;;
82479;SDS011;72105;46.112;12.902;2024-01-11T09:44:25;9.82;;;6.32;;
82479;SDS011;72105;46.112;12.902;2024-01-11T09:46:52;6.30;;;4.05;;
82479;SDS011;72105;46.112;12.902;2024-01-11T09:49:18;5.53;;;3.80;;
82479;SDS011;72105;46.112;12.902;2024-01-11T09:51:45;6.15;;;4.07;;
82479;SDS011;72105;46.112;12.902;2024-01-11T09:54:12;7.47;;;4.20;;
82479;SDS011;72105;46.112;12.902;2024-01-11T09:56:39;7.20;;;2.83;;
82479;SDS011;72105;46.112;12.902;2024-01-11T09:59:06;7.18;;;3.70;;
82479;SDS011;72105;46.112;12.902;2024-01-11T10:01:34;7.47;;;3.50;;
82479;SDS011;72105;46.112;12.902;2024-01-11T10:04:01;4.80;;;3.05;;
82479;SDS011;72105;46.112;12.902;2024-01-11T10:06:30;8.27;;;4.75;;
82479;SDS011;72105;46.112;12.902;2024-01-11T10:08:58;6.85;;;3.75;;
82479;SDS011;72105;46.112;12.902;2024-01-11T10:11:24;6.70;;;4.22;;
82479;SDS011;72105;46.112;12.902;2024-01-11T10:13:59;7.75;;;4.78;;
82479;SDS011;72105;46.112;12.902;2024-01-11T10:16:27;8.80;;;4.45;;
82479;SDS011;72105;46.112;12.902;2024-01-11T10:18:54;7.18;;;4.03;;
82479;SDS011;72105;46.112;12.902;2024-01-11T10:21:20;6.57;;;4.05;;
82479;SDS011;72105;46.112;12.902;2024-01-11T10:23:47;6.60;;;4.03;;
82479;SDS011;72105;46.112;12.902;2024-01-11T10:26:16;7.22;;;4.40;;
82479;SDS011;72105;46.112;12.902;2024-01-11T10:28:46;7.07;;;5.35;;
82479;SDS011;72105;46.112;12.902;2024-01-11T10:31:12;7.47;;;4.47;;
82479;SDS011;72105;46.112;12.902;2024-01-11T10:33:41;6.70;;;3.90;;
82479;SDS011;72105;46.112;12.902;2024-01-11T10:36:08;5.60;;;3.40;;
82479;SDS011;72105;46.112;12.902;2024-01-11T10:38:38;5.50;;;3.50;;
82479;SDS011;72105;46.112;12.902;2024-01-11T10:41:05;4.63;;;3.42;;
82479;SDS011;72105;46.112;12.902;2024-01-11T10:43:32;4.70;;;3.63;;
82479;SDS011;72105;46.112;12.902;2024-01-11T10:48:29;4.38;;;3.08;;
82479;SDS011;72105;46.112;12.902;2024-01-11T10:50:59;5.03;;;3.08;;
82479;SDS011;72105;46.112;12.902;2024-01-11T10:53:36;5.82;;;3.50;;
82479;SDS011;72105;46.112;12.902;2024-01-11T10:56:07;6.25;;;4.45;;
82479;SDS011;72105;46.112;12.902;2024-01-11T10:58:34;7.38;;;4.43;;
82479;SDS011;72105;46.112;12.902;2024-01-11T11:01:00;5.97;;;3.33;;
82479;SDS011;72105;46.112;12.902;2024-01-11T11:03:27;5.20;;;3.33;;
82479;SDS011;72105;46.112;12.902;2024-01-11T11:05:54;5.95;;;4.25;;
82479;SDS011;72105;46.112;12.902;2024-01-11T11:08:21;5.05;;;3.35;;
82479;SDS011;72105;46.112;12.902;2024-01-11T11:10:49;4.97;;;3.38;;
82479;SDS011;72105;46.112;12.902;2024-01-11T11:13:16;11.52;;;5.75;;
82479;SDS011;72105;46.112;12.902;2024-01-11T11:15:46;5.35;;;3.30;;
82479;SDS011;72105;46.112;12.902;2024-01-11T11:18:14;5.57;;;3.95;;
82479;SDS011;72105;46.112;12.902;2024-01-11T11:20:41;6.07;;;3.78;;
82479;SDS011;72105;46.112;12.902;2024-01-11T11:23:07;7.05;;;4.10;;
82479;SDS011;72105;46.112;12.902;2024-01-11T11:25:38;7.53;;;4.22;;
82479;SDS011;72105;46.112;12.902;2024-01-11T11:28:06;14.20;;;7.50;;
82479;SDS011;72105;46.112;12.902;2024-01-11T11:30:33;8.82;;;5.18;;
82479;SDS011;72105;46.112;12.902;2024-01-11T11:35:58;8.93;;;5.20;;
82479;SDS011;72105;46.112;12.902;2024-01-11T11:38:28;6.88;;;4.35;;
82479;SDS011;72105;46.112;12.902;2024-01-11T11:40:55;9.88;;;5.30;;
82479;SDS011;72105;46.112;12.902;2024-01-11T11:43:22;8.13;;;4.45;;
82479;SDS011;72105;46.112;12.902;2024-01-11T11:45:49;4.97;;;3.53;;
82479;SDS011;72105;46.112;12.902;2024-01-11T11:51:10;6.35;;;3.85;;
82479;SDS011;72105;46.112;12.902;2024-01-11T11:53:37;4.95;;;3.15;;
82479;SDS011;72105;46.112;12.902;2024-01-11T11:56:03;7.85;;;4.25;;
82479;SDS011;72105;46.112;12.902;2024-01-11T11:58:29;9.52;;;5.60;;
82479;SDS011;72105;46.112;12.902;2024-01-11T12:00:56;9.77;;;5.55;;
82479;SDS011;72105;46.112;12.902;2024-01-11T12:03:24;8.20;;;4.85;;
82479;SDS011;72105;46.112;12.902;2024-01-11T12:05:52;9.25;;;5.55;;
82479;SDS011;72105;46.112;12.902;2024-01-11T12:08:18;6.47;;;4.25;;
82479;SDS011;72105;46.112;12.902;2024-01-11T12:10:44;6.00;;;3.97;;
82479;SDS011;72105;46.112;12.902;2024-01-11T12:13:10;7.75;;;4.53;;
82479;SDS011;72105;46.112;12.902;2024-01-11T12:15:37;5.25;;;3.70;;
82479;SDS011;72105;46.112;12.902;2024-01-11T12:18:03;7.10;;;5.10;;
82479;SDS011;72105;46.112;12.902;2024-01-11T12:20:29;8.13;;;4.78;;
82479;SDS011;72105;46.112;12.902;2024-01-11T12:22:55;8.45;;;3.80;;
82479;SDS011;72105;46.112;12.902;2024-01-11T12:25:22;6.53;;;3.90;;
82479;SDS011;72105;46.112;12.902;2024-01-11T12:27:48;12.65;;;5.07;;
82479;SDS011;72105;46.112;12.902;2024-01-11T12:30:16;7.65;;;5.03;;
82479;SDS011;72105;46.112;12.902;2024-01-11T12:32:43;5.65;;;3.92;;
82479;SDS011;72105;46.112;12.902;2024-01-11T12:35:09;6.05;;;3.70;;
82479;SDS011;72105;46.112;12.902;2024-01-11T12:37:36;5.60;;;3.53;;
82479;SDS011;72105;46.112;12.902;2024-01-11T12:40:02;7.05;;;4.40;;
82479;SDS011;72105;46.112;12.902;2024-01-11T12:42:28;5.28;;;3.53;;
82479;SDS011;72105;46.112;12.902;2024-01-11T12:44:55;7.20;;;4.50;;
82479;SDS011;72105;46.112;12.902;2024-01-11T12:47:21;9.95;;;6.13;;
82479;SDS011;72105;46.112;12.902;2024-01-11T12:49:47;8.88;;;4.03;;
82479;SDS011;72105;46.112;12.902;2024-01-11T12:52:16;5.15;;;3.42;;
82479;SDS011;72105;46.112;12.902;2024-01-11T12:54:43;4.88;;;3.45;;
82479;SDS011;72105;46.112;12.902;2024-01-11T12:57:19;6.30;;;3.70;;
82479;SDS011;72105;46.112;12.902;2024-01-11T12:59:46;9.18;;;4.32;;
82479;SDS011;72105;46.112;12.902;2024-01-11T13:02:12;8.07;;;3.42;;
82479;SDS011;72105;46.112;12.902;2024-01-11T13:04:39;6.75;;;4.07;;
82479;SDS011;72105;46.112;12.902;2024-01-11T13:07:06;5.57;;;3.33;;
82479;SDS011;72105;46.112;12.902;2024-01-11T13:09:32;6.55;;;3.40;;
82479;SDS011;72105;46.112;12.902;2024-01-11T13:11:58;9.73;;;3.58;;
82479;SDS011;72105;46.112;12.902;2024-01-11T13:14:25;8.38;;;4.03;;
82479;SDS011;72105;46.112;12.902;2024-01-11T13:16:51;6.60;;;3.80;;
82479;SDS011;72105;46.112;12.902;2024-01-11T13:19:17;5.32;;;3.13;;
82479;SDS011;72105;46.112;12.902;2024-01-11T13:21:44;5.85;;;3.17;;
82479;SDS011;72105;46.112;12.902;2024-01-11T13:24:10;5.57;;;3.22;;
82479;SDS011;72105;46.112;12.902;2024-01-11T13:26:38;5.25;;;3.30;;
82479;SDS011;72105;46.112;12.902;2024-01-11T13:29:07;13.77;;;4.93;;
82479;SDS011;72105;46.112;12.902;2024-01-11T13:31:35;11.20;;;6.38;;
82479;SDS011;72105;46.112;12.902;2024-01-11T13:34:01;8.23;;;3.78;;
82479;SDS011;72105;46.112;12.902;2024-01-11T13:36:28;5.80;;;3.60;;
82479;SDS011;72105;46.112;12.902;2024-01-11T13:38:54;6.40;;;3.22;;
82479;SDS011;72105;46.112;12.902;2024-01-11T13:41:20;5.75;;;3.08;;
82479;SDS011;72105;46.112;12.902;2024-01-11T13:43:47;7.05;;;3.47;;
82479;SDS011;72105;46.112;12.902;2024-01-11T13:46:15;6.22;;;3.70;;
82479;SDS011;72105;46.112;12.902;2024-01-11T13:48:44;6.85;;;4.00;;
82479;SDS011;72105;46.112;12.902;2024-01-11T13:51:12;5.88;;;3.60;;
82479;SDS011;72105;46.112;12.902;2024-01-11T13:53:39;5.03;;;2.95;;
82479;SDS011;72105;46.112;12.902;2024-01-11T13:56:05;5.10;;;3.90;;
82479;SDS011;72105;46.112;12.902;2024-01-11T13:58:31;6.07;;;3.50;;
82479;SDS011;72105;46.112;12.902;2024-01-11T14:00:57;4.82;;;3.92;;
82479;SDS011;72105;46.112;12.902;2024-01-11T14:03:23;6.85;;;3.92;;
82479;SDS011;72105;46.112;12.902;2024-01-11T14:05:50;6.60;;;4.00;;
82479;SDS011;72105;46.112;12.902;2024-01-11T14:08:16;7.05;;;4.00;;
82479;SDS011;72105;46.112;12.902;2024-01-11T14:10:42;7.95;;;3.75;;
82479;SDS011;72105;46.112;12.902;2024-01-11T14:13:09;8.80;;;3.80;;
82479;SDS011;72105;46.112;12.902;2024-01-11T14:15:35;4.82;;;3.33;;
82479;SDS011;72105;46.112;12.902;2024-01-11T14:18:02;5.88;;;3.20;;
82479;SDS011;72105;46.112;12.902;2024-01-11T14:20:28;8.38;;;4.05;;
82479;SDS011;72105;46.112;12.902;2024-01-11T14:22:55;11.10;;;4.93;;
82479;SDS011;72105;46.112;12.902;2024-01-11T14:25:23;14.30;;;4.30;;
82479;SDS011;72105;46.112;12.902;2024-01-11T14:27:52;6.30;;;3.92;;
82479;SDS011;72105;46.112;12.902;2024-01-11T14:30:18;8.48;;;4.18;;
82479;SDS011;72105;46.112;12.902;2024-01-11T14:32:44;9.50;;;3.72;;
82479;SDS011;72105;46.112;12.902;2024-01-11T14:35:11;7.13;;;4.35;;
82479;SDS011;72105;46.112;12.902;2024-01-11T14:37:37;6.75;;;4.40;;